createdAt,value
2019-03-16T00:00:56.835Z,11.13
2019-03-16T00:03:26.508Z,11.20
2019-03-16T00:05:56.053Z,7.93
2019-03-16T00:08:26.792Z,9.00
2019-03-16T00:10:56.548Z,8.13
2019-03-16T00:13:26.295Z,11.43
2019-03-16T00:15:56.000Z,9.37
2019-03-16T00:18:25.689Z,9.47
2019-03-16T00:20:55.242Z,8.83
2019-03-16T00:23:24.918Z,8.73
2019-03-16T00:25:55.451Z,8.70
2019-03-16T00:28:25.098Z,8.90
2019-03-16T00:30:55.265Z,7.27
2019-03-16T00:33:24.801Z,7.00
2019-03-16T00:35:54.688Z,6.40
2019-03-16T00:38:24.518Z,8.57
2019-03-16T00:40:54.051Z,12.17
2019-03-16T00:43:23.705Z,8.00
2019-03-16T00:45:54.030Z,10.93
2019-03-16T00:48:23.562Z,7.37
2019-03-16T00:50:53.542Z,5.47
2019-03-16T00:53:23.871Z,10.93
2019-03-16T00:55:53.575Z,8.83
2019-03-16T00:58:23.122Z,8.53
2019-03-16T01:00:52.657Z,8.87
2019-03-16T01:03:22.278Z,5.87
2019-03-16T01:06:41.462Z,14.43
2019-03-16T01:09:09.885Z,9.03
2019-03-16T01:11:38.382Z,8.63
2019-03-16T01:14:06.740Z,10.43
2019-03-16T01:16:35.106Z,9.97
2019-03-16T01:19:04.071Z,10.83
2019-03-16T01:21:32.490Z,9.07
2019-03-16T01:24:00.849Z,7.03
2019-03-16T01:26:29.502Z,10.90
2019-03-16T01:28:58.058Z,9.27
2019-03-16T01:31:26.454Z,11.33
2019-03-16T01:33:55.150Z,14.33
2019-03-16T01:36:23.509Z,12.13
2019-03-16T01:38:51.901Z,10.60
2019-03-16T01:41:20.519Z,10.83
2019-03-16T01:43:48.866Z,9.93
2019-03-16T01:46:17.227Z,9.90
2019-03-16T01:48:45.668Z,11.47
2019-03-16T01:51:14.031Z,10.43
2019-03-16T01:53:42.776Z,13.10
2019-03-16T01:56:11.872Z,8.33
2019-03-16T01:58:40.232Z,10.00
2019-03-16T02:01:09.036Z,8.93
2019-03-16T02:03:37.512Z,8.47
2019-03-16T02:06:05.877Z,6.80
2019-03-16T02:08:34.680Z,9.00
2019-03-16T02:11:03.041Z,8.77
2019-03-16T02:13:31.425Z,6.77
2019-03-16T02:16:10.434Z,5.87
2019-03-16T02:18:29.948Z,6.77
2019-03-16T02:20:58.514Z,6.67
2019-03-16T02:23:26.873Z,7.97
2019-03-16T02:25:55.315Z,4.13
2019-03-16T02:28:23.946Z,5.97
2019-03-16T02:30:52.836Z,5.37
2019-03-16T02:33:21.259Z,5.57
2019-03-16T02:35:50.504Z,6.73
2019-03-16T02:38:18.871Z,5.53
2019-03-16T02:40:47.614Z,6.33
2019-03-16T02:43:15.989Z,5.33
2019-03-16T02:45:44.536Z,6.47
2019-03-16T02:48:12.898Z,7.30
2019-03-16T02:50:41.438Z,5.40
2019-03-16T02:53:09.966Z,5.97
2019-03-16T02:55:38.656Z,3.27
2019-03-16T02:58:07.019Z,4.80
2019-03-16T03:00:35.816Z,6.30
2019-03-16T03:03:04.720Z,6.87
2019-03-16T03:05:33.799Z,6.77
2019-03-16T03:08:02.206Z,10.70
2019-03-16T03:10:30.550Z,7.20
2019-03-16T03:12:59.255Z,6.60
2019-03-16T03:15:27.705Z,4.20
2019-03-16T03:17:56.071Z,4.67
2019-03-16T03:20:24.544Z,6.63
2019-03-16T03:22:52.900Z,3.67
2019-03-16T03:25:21.275Z,3.30
2019-03-16T03:27:50.147Z,4.77
2019-03-16T03:30:19.471Z,3.07
2019-03-16T03:32:47.928Z,4.93
2019-03-16T03:35:16.483Z,7.30
2019-03-16T03:37:44.857Z,5.33
2019-03-16T03:40:14.016Z,4.13
2019-03-16T03:42:42.508Z,6.80
2019-03-16T03:45:14.680Z,3.43
2019-03-16T03:47:43.066Z,8.73
2019-03-16T03:50:13.598Z,9.43
2019-03-16T03:52:41.966Z,11.90
2019-03-16T03:55:14.470Z,12.87
2019-03-16T03:57:42.884Z,14.20
2019-03-16T04:00:20.635Z,13.20
2019-03-16T04:02:48.996Z,12.17
2019-03-16T04:05:17.360Z,13.53
2019-03-16T04:07:45.882Z,19.77
2019-03-16T04:10:14.465Z,10.70
2019-03-16T04:12:42.827Z,14.23
2019-03-16T04:15:13.345Z,10.67
2019-03-16T04:17:41.699Z,9.50
2019-03-16T04:20:14.408Z,10.50
2019-03-16T04:22:42.947Z,13.10
2019-03-16T04:25:11.402Z,12.73
2019-03-16T04:27:40.188Z,8.00
2019-03-16T04:30:10.351Z,6.77
2019-03-16T04:32:38.698Z,10.83
2019-03-16T04:35:08.218Z,7.73
2019-03-16T04:37:36.588Z,10.17
2019-03-16T04:40:12.780Z,7.67
2019-03-16T04:42:41.362Z,7.80
2019-03-16T04:45:11.696Z,8.27
2019-03-16T04:47:40.061Z,9.03
2019-03-16T04:50:11.313Z,6.93
2019-03-16T04:52:39.677Z,9.27
2019-03-16T04:55:09.582Z,9.00
2019-03-16T04:57:38.791Z,6.63
2019-03-16T05:00:10.057Z,4.20
2019-03-16T05:02:39.235Z,7.40
2019-03-16T05:05:07.666Z,8.47
2019-03-16T05:07:36.292Z,6.80
2019-03-16T05:10:07.991Z,7.40
2019-03-16T05:12:36.638Z,12.47
2019-03-16T05:15:07.239Z,11.50
2019-03-16T05:17:35.635Z,8.47
2019-03-16T05:20:06.174Z,7.50
2019-03-16T05:22:34.525Z,6.97
2019-03-16T05:25:03.492Z,9.97
2019-03-16T05:27:31.857Z,6.97
2019-03-16T05:30:00.402Z,7.73
2019-03-16T05:32:28.689Z,9.07
2019-03-16T05:34:57.245Z,7.67
2019-03-16T05:37:25.606Z,9.33
2019-03-16T05:39:54.208Z,9.67
2019-03-16T05:42:23.101Z,8.90
2019-03-16T05:44:52.120Z,4.67
2019-03-16T05:47:20.672Z,7.83
2019-03-16T05:49:49.030Z,7.03
2019-03-16T05:52:17.412Z,5.47
2019-03-16T05:54:47.129Z,7.17
2019-03-16T05:57:15.616Z,7.20
2019-03-16T05:59:44.085Z,9.13
2019-03-16T06:02:12.779Z,10.37
2019-03-16T06:04:41.184Z,9.43
2019-03-16T06:07:09.542Z,4.43
2019-03-16T06:09:38.077Z,5.00
2019-03-16T06:12:06.434Z,5.57
2019-03-16T06:14:34.791Z,7.10
2019-03-16T06:17:03.325Z,4.37
2019-03-16T06:19:31.751Z,6.80
2019-03-16T06:22:00.117Z,6.60
2019-03-16T06:24:28.495Z,3.83
2019-03-16T06:26:57.028Z,7.70
2019-03-16T06:29:25.383Z,5.10
2019-03-16T06:31:53.789Z,3.53
2019-03-16T06:34:22.391Z,4.97
2019-03-16T06:36:50.753Z,3.87
2019-03-16T06:39:19.349Z,7.47
2019-03-16T06:41:47.711Z,5.10
2019-03-16T06:44:16.526Z,4.50
2019-03-16T06:46:44.889Z,4.80
2019-03-16T06:49:13.323Z,2.57
2019-03-16T06:51:42.035Z,3.87
2019-03-16T06:54:10.399Z,3.63
2019-03-16T06:56:38.780Z,5.93
2019-03-16T06:59:07.594Z,2.83
2019-03-16T07:01:35.975Z,3.07
2019-03-16T07:04:04.982Z,5.60
2019-03-16T07:06:33.733Z,7.70
2019-03-16T07:09:02.127Z,3.80
2019-03-16T07:11:30.604Z,3.70
2019-03-16T07:13:59.119Z,4.80
2019-03-16T07:16:27.601Z,4.37
2019-03-16T07:18:59.093Z,5.87
2019-03-16T07:21:26.056Z,4.33
2019-03-16T07:23:54.692Z,2.30
2019-03-16T07:26:23.109Z,2.87
2019-03-16T07:28:51.789Z,3.30
2019-03-16T07:31:20.148Z,2.00
2019-03-16T07:33:48.517Z,2.87
2019-03-16T07:36:17.073Z,2.13
2019-03-16T07:38:45.722Z,2.27
2019-03-16T07:41:14.097Z,1.80
2019-03-16T07:43:42.456Z,2.37
2019-03-16T07:46:10.899Z,4.33
2019-03-16T07:48:39.444Z,1.60
2019-03-16T07:51:07.804Z,3.67
2019-03-16T07:53:37.297Z,3.30
2019-03-16T07:56:05.651Z,4.13
2019-03-16T07:58:34.109Z,3.53
2019-03-16T08:01:03.610Z,4.70
2019-03-16T08:03:32.627Z,6.83
2019-03-16T08:06:01.068Z,4.27
2019-03-16T08:08:30.345Z,4.73
2019-03-16T08:10:58.706Z,5.37
2019-03-16T08:13:27.080Z,4.93
2019-03-16T08:15:55.577Z,6.70
2019-03-16T08:18:24.052Z,9.07
2019-03-16T08:20:52.741Z,6.60
2019-03-16T08:23:21.993Z,5.33
2019-03-16T08:25:50.504Z,2.60
2019-03-16T08:28:19.000Z,4.87
2019-03-16T08:30:47.373Z,2.33
2019-03-16T08:33:15.730Z,3.43
2019-03-16T08:35:44.230Z,2.97
2019-03-16T08:38:12.731Z,2.60
2019-03-16T08:40:41.177Z,4.73
2019-03-16T08:43:10.290Z,1.63
2019-03-16T08:45:39.390Z,3.17
2019-03-16T08:48:07.761Z,1.60
2019-03-16T08:50:36.337Z,1.87
2019-03-16T08:53:04.769Z,3.03
2019-03-16T08:55:33.149Z,2.10
2019-03-16T08:58:06.339Z,2.23
2019-03-16T09:00:32.721Z,3.00
2019-03-16T09:03:01.081Z,2.77
2019-03-16T09:05:29.875Z,3.27
2019-03-16T09:07:58.233Z,4.50
2019-03-16T09:10:26.669Z,4.57
2019-03-16T09:12:55.565Z,2.37
2019-03-16T09:15:24.047Z,3.77
2019-03-16T09:17:52.417Z,2.57
2019-03-16T09:20:20.959Z,4.43
2019-03-16T09:22:49.508Z,2.10
2019-03-16T09:25:17.854Z,2.90
2019-03-16T09:27:46.551Z,4.37
2019-03-16T09:30:16.493Z,3.43
2019-03-16T09:32:44.995Z,3.57
2019-03-16T09:35:13.424Z,2.33
2019-03-16T09:37:42.205Z,12.70
2019-03-16T09:40:11.454Z,10.60
2019-03-16T09:42:39.811Z,6.77
2019-03-16T09:45:10.608Z,3.30
2019-03-16T09:47:39.256Z,2.87
2019-03-16T09:50:09.563Z,2.97
2019-03-16T09:52:38.154Z,1.57
2019-03-16T09:55:11.054Z,1.67
2019-03-16T09:57:39.412Z,2.83
2019-03-16T10:00:10.968Z,2.20
2019-03-16T10:02:39.339Z,4.77
2019-03-16T10:05:07.692Z,2.60
2019-03-16T10:07:36.192Z,3.90
2019-03-16T10:10:08.020Z,1.70
2019-03-16T10:12:36.382Z,6.00
2019-03-16T10:15:07.680Z,3.67
2019-03-16T10:17:36.463Z,3.90
2019-03-16T10:20:13.023Z,4.90
2019-03-16T10:22:41.737Z,3.77
2019-03-16T10:25:10.174Z,2.93
2019-03-16T10:27:38.533Z,4.90
2019-03-16T10:30:10.311Z,2.90
2019-03-16T10:32:38.812Z,6.23
2019-03-16T10:35:07.490Z,2.70
2019-03-16T10:37:36.187Z,2.73
2019-03-16T10:40:07.191Z,1.40
2019-03-16T10:42:35.818Z,2.30
2019-03-16T10:45:06.410Z,1.37
2019-03-16T10:47:35.014Z,2.33
2019-03-16T10:50:03.850Z,2.07
2019-03-16T10:52:32.302Z,3.23
2019-03-16T10:55:00.667Z,1.67
2019-03-16T10:57:29.406Z,2.50
2019-03-16T10:59:57.833Z,2.67
2019-03-16T11:02:26.710Z,2.00
2019-03-16T11:04:55.074Z,2.53
2019-03-16T11:07:23.440Z,3.30
2019-03-16T11:09:51.879Z,5.13
2019-03-16T11:12:20.249Z,4.77
2019-03-16T11:14:48.609Z,1.47
2019-03-16T11:17:17.181Z,2.53
2019-03-16T11:19:45.610Z,1.90
2019-03-16T11:22:15.364Z,1.37
2019-03-16T11:24:43.730Z,3.10
2019-03-16T11:27:12.535Z,4.10
2019-03-16T11:29:40.986Z,3.27
2019-03-16T11:32:09.352Z,2.90
2019-03-16T11:34:38.018Z,3.93
2019-03-16T11:37:06.647Z,2.67
2019-03-16T11:39:35.336Z,1.83
2019-03-16T11:42:04.027Z,1.10
2019-03-16T11:44:32.394Z,1.53
2019-03-16T11:47:00.974Z,1.97
2019-03-16T11:49:29.454Z,3.93
2019-03-16T11:51:57.821Z,2.30
2019-03-16T11:54:26.191Z,1.90
2019-03-16T11:56:55.085Z,5.63
2019-03-16T11:59:23.629Z,4.40
2019-03-16T12:02:04.679Z,4.43
2019-03-16T12:04:22.367Z,1.33
2019-03-16T12:06:50.802Z,2.57
2019-03-16T12:09:19.340Z,3.23
2019-03-16T12:11:47.763Z,5.23
2019-03-16T12:14:16.183Z,4.53
2019-03-16T12:16:44.527Z,3.13
2019-03-16T12:19:13.256Z,2.57
2019-03-16T12:21:41.622Z,2.10
2019-03-16T12:24:10.221Z,2.43
2019-03-16T12:26:38.899Z,1.53
2019-03-16T12:29:07.376Z,4.23
2019-03-16T12:31:35.691Z,2.50
2019-03-16T12:34:04.350Z,4.37
2019-03-16T12:36:32.720Z,2.87
2019-03-16T12:39:01.402Z,4.03
2019-03-16T12:41:30.013Z,6.57
2019-03-16T12:43:58.373Z,4.23
2019-03-16T12:46:27.050Z,2.13
2019-03-16T12:48:55.622Z,4.17
2019-03-16T12:51:24.064Z,2.93
2019-03-16T12:53:52.571Z,2.23
2019-03-16T12:56:21.098Z,2.60
2019-03-16T12:58:49.972Z,2.23
2019-03-16T13:01:18.419Z,4.63
2019-03-16T13:03:50.147Z,3.90
2019-03-16T13:06:19.109Z,3.77
2019-03-16T13:08:47.314Z,2.33
2019-03-16T13:11:16.070Z,1.50
2019-03-16T13:13:44.804Z,3.53
2019-03-16T13:16:13.411Z,2.63
2019-03-16T13:18:41.777Z,3.50
2019-03-16T13:21:10.148Z,1.40
2019-03-16T13:23:39.251Z,3.07
2019-03-16T13:26:07.627Z,1.70
2019-03-16T13:28:36.009Z,2.63
2019-03-16T13:31:04.699Z,3.20
2019-03-16T13:33:33.557Z,2.10
2019-03-16T13:36:02.313Z,1.77
2019-03-16T13:38:30.734Z,2.57
2019-03-16T13:41:00.048Z,3.43
2019-03-16T13:43:28.416Z,3.77
2019-03-16T13:45:57.288Z,2.23
2019-03-16T13:48:25.660Z,2.50
2019-03-16T13:50:54.031Z,4.53
2019-03-16T13:53:22.751Z,4.97
2019-03-16T13:55:51.746Z,2.40
2019-03-16T13:58:20.423Z,1.57
2019-03-16T14:00:48.832Z,2.10
2019-03-16T14:03:17.801Z,2.73
2019-03-16T14:05:46.311Z,4.47
2019-03-16T14:08:14.681Z,6.13
2019-03-16T14:10:43.142Z,4.40
2019-03-16T14:13:11.717Z,3.03
2019-03-16T14:15:40.085Z,3.43
2019-03-16T14:18:09.284Z,1.90
2019-03-16T14:20:37.650Z,2.63
2019-03-16T14:23:06.112Z,3.00
2019-03-16T14:25:34.742Z,3.43
2019-03-16T14:28:03.417Z,2.33
2019-03-16T14:33:04.616Z,1.73
2019-03-16T14:35:32.977Z,3.67
2019-03-16T14:38:01.945Z,3.10
2019-03-16T14:40:30.411Z,5.90
2019-03-16T14:42:59.033Z,4.20
2019-03-16T14:45:27.661Z,3.30
2019-03-16T14:47:56.026Z,2.00
2019-03-16T14:50:26.300Z,4.57
2019-03-16T14:52:54.792Z,3.67
2019-03-16T14:55:23.164Z,1.97
2019-03-16T14:57:51.735Z,3.60
2019-03-16T15:00:20.274Z,1.47
2019-03-16T15:02:48.904Z,1.30
2019-03-16T15:05:17.381Z,3.60
2019-03-16T15:07:49.402Z,4.07
2019-03-16T15:10:17.489Z,3.67
2019-03-16T15:12:46.165Z,2.70
2019-03-16T15:15:19.533Z,3.67
2019-03-16T15:17:47.920Z,1.37
2019-03-16T15:20:16.513Z,3.10
2019-03-16T15:22:45.584Z,4.63
2019-03-16T15:25:14.412Z,3.53
2019-03-16T15:27:43.743Z,3.23
2019-03-16T15:30:14.937Z,2.17
2019-03-16T15:32:43.310Z,2.10
2019-03-16T15:35:11.660Z,2.17
2019-03-16T15:37:40.343Z,1.03
2019-03-16T15:40:12.484Z,1.67
2019-03-16T15:42:41.247Z,2.00
2019-03-16T15:45:15.300Z,2.43
2019-03-16T15:47:43.855Z,1.90
2019-03-16T15:50:12.331Z,2.80
2019-03-16T15:52:40.732Z,2.07
2019-03-16T15:55:09.596Z,3.47
2019-03-16T15:57:38.592Z,3.40
2019-03-16T16:00:12.651Z,4.00
2019-03-16T16:02:41.042Z,3.87
2019-03-16T16:05:10.583Z,2.13
2019-03-16T16:07:38.957Z,1.83
2019-03-16T16:10:15.942Z,3.10
2019-03-16T16:12:44.308Z,4.13
2019-03-16T16:15:13.005Z,2.80
2019-03-16T16:17:41.819Z,3.00
2019-03-16T16:20:17.866Z,2.47
2019-03-16T16:22:46.233Z,1.57
2019-03-16T16:25:15.067Z,1.47
2019-03-16T16:27:44.161Z,3.30
2019-03-16T16:30:20.998Z,4.33
2019-03-16T16:32:49.387Z,3.63
2019-03-16T16:35:17.948Z,2.67
2019-03-16T16:37:46.674Z,1.87
2019-03-16T16:40:19.630Z,3.33
2019-03-16T16:42:48.205Z,1.80
2019-03-16T16:45:17.958Z,2.10
2019-03-16T16:47:46.558Z,2.03
2019-03-16T16:50:20.928Z,3.03
2019-03-16T16:52:49.761Z,5.17
2019-03-16T16:55:18.518Z,2.73
2019-03-16T16:57:47.601Z,1.83
2019-03-16T17:00:23.949Z,3.23
2019-03-16T17:02:52.467Z,2.70
2019-03-16T17:05:21.242Z,2.63
2019-03-16T17:07:49.645Z,2.53
2019-03-16T17:10:18.646Z,2.27
2019-03-16T17:12:47.270Z,3.33
2019-03-16T17:15:17.598Z,3.07
2019-03-16T17:17:46.032Z,2.20
2019-03-16T17:20:15.989Z,2.80
2019-03-16T17:22:44.466Z,2.00
2019-03-16T17:25:13.728Z,3.83
2019-03-16T17:27:43.059Z,1.83
2019-03-16T17:30:26.517Z,4.30
2019-03-16T17:32:54.867Z,1.53
2019-03-16T17:35:23.229Z,1.23
2019-03-16T17:37:51.986Z,1.53
2019-03-16T17:40:20.353Z,3.30
2019-03-16T17:42:48.768Z,1.80
2019-03-16T17:45:17.578Z,1.50
2019-03-16T17:47:46.302Z,1.90
2019-03-16T17:50:16.057Z,2.33
2019-03-16T17:52:44.411Z,2.80
2019-03-16T17:55:15.065Z,3.73
2019-03-16T17:57:45.203Z,4.10
2019-03-16T18:00:18.338Z,1.80
2019-03-16T18:02:51.829Z,2.70
2019-03-16T18:05:17.199Z,3.83
2019-03-16T18:07:45.737Z,1.60
2019-03-16T18:10:15.070Z,1.37
2019-03-16T18:12:43.754Z,2.83
2019-03-16T18:15:39.511Z,4.57
2019-03-16T18:18:08.151Z,2.30
2019-03-16T18:20:36.514Z,2.80
2019-03-16T18:23:04.887Z,3.07
2019-03-16T18:25:33.431Z,1.87
2019-03-16T18:28:02.101Z,1.53
2019-03-16T18:30:30.755Z,4.17
2019-03-16T18:32:59.117Z,2.70
2019-03-16T18:35:27.557Z,2.10
2019-03-16T18:37:55.922Z,3.77
2019-03-16T18:40:24.473Z,3.57
2019-03-16T18:42:52.841Z,3.03
2019-03-16T18:45:26.749Z,3.07
2019-03-16T18:47:55.230Z,3.60
2019-03-16T18:50:23.735Z,3.93
2019-03-16T18:52:52.136Z,3.80
2019-03-16T18:55:20.499Z,5.00
2019-03-16T18:57:49.145Z,3.10
2019-03-16T19:00:18.652Z,5.83
2019-03-16T19:02:47.266Z,2.37
2019-03-16T19:05:15.800Z,2.87
2019-03-16T19:07:44.164Z,4.07
2019-03-16T19:10:16.687Z,3.27
2019-03-16T19:12:45.273Z,4.53
2019-03-16T19:15:15.807Z,4.70
2019-03-16T19:17:57.536Z,5.17
2019-03-16T19:20:15.692Z,5.47
2019-03-16T19:22:44.238Z,5.87
2019-03-16T19:25:14.473Z,4.63
2019-03-16T19:27:42.839Z,3.63
2019-03-16T19:30:13.567Z,3.47
2019-03-16T19:32:42.398Z,4.27
2019-03-16T19:35:11.485Z,5.93
2019-03-16T19:37:39.851Z,3.17
2019-03-16T19:40:19.717Z,4.73
2019-03-16T19:42:48.143Z,3.87
2019-03-16T19:45:16.869Z,2.63
2019-03-16T19:47:45.578Z,2.83
2019-03-16T19:50:15.695Z,2.00
2019-03-16T19:52:44.174Z,3.10
2019-03-16T19:55:15.718Z,3.27
2019-03-16T19:57:44.201Z,3.03
2019-03-16T20:00:16.498Z,2.37
2019-03-16T20:02:50.167Z,4.57
2019-03-16T20:05:15.250Z,3.27
2019-03-16T20:07:43.621Z,5.70
2019-03-16T20:10:16.231Z,5.70
2019-03-16T20:12:44.574Z,4.93
2019-03-16T20:15:14.226Z,3.30
2019-03-16T20:17:43.686Z,6.40
2019-03-16T20:20:13.606Z,4.13
2019-03-16T20:22:42.707Z,5.77
2019-03-16T20:25:11.702Z,4.10
2019-03-16T20:27:40.220Z,3.83
2019-03-16T20:30:11.301Z,4.23
2019-03-16T20:32:39.902Z,4.53
2019-03-16T20:35:11.528Z,4.87
2019-03-16T20:37:39.887Z,3.83
2019-03-16T20:40:16.376Z,5.80
2019-03-16T20:42:44.748Z,4.23
2019-03-16T20:45:13.763Z,5.20
2019-03-16T20:47:42.230Z,4.07
2019-03-16T20:50:16.060Z,3.70
2019-03-16T20:52:44.696Z,4.30
2019-03-16T20:55:13.496Z,5.03
2019-03-16T20:57:42.535Z,4.10
2019-03-16T21:00:17.404Z,3.67
2019-03-16T21:02:46.205Z,3.20
2019-03-16T21:05:14.714Z,4.43
2019-03-16T21:07:43.079Z,4.53
2019-03-16T21:10:12.771Z,2.97
2019-03-16T21:12:42.307Z,3.80
2019-03-16T21:15:12.871Z,3.73
2019-03-16T21:17:41.221Z,3.73
2019-03-16T21:20:14.715Z,2.57
2019-03-16T21:22:43.495Z,2.93
2019-03-16T21:25:13.508Z,4.70
2019-03-16T21:27:42.320Z,4.17
2019-03-16T21:30:13.846Z,5.40
2019-03-16T21:32:42.642Z,4.55
2019-03-16T21:35:11.081Z,6.20
2019-03-16T21:37:39.444Z,6.53
2019-03-16T21:40:10.693Z,3.87
2019-03-16T21:42:39.097Z,6.20
2019-03-16T21:45:11.066Z,6.77
2019-03-16T21:47:39.490Z,6.57
2019-03-16T21:50:12.937Z,5.37
2019-03-16T21:52:44.290Z,5.53
2019-03-16T21:55:12.770Z,4.47
2019-03-16T21:57:41.125Z,5.70
2019-03-16T22:00:13.915Z,4.40
2019-03-16T22:02:42.505Z,3.60
2019-03-16T22:05:12.081Z,2.70
2019-03-16T22:07:40.438Z,5.77
2019-03-16T22:10:13.960Z,5.17
2019-03-16T22:12:42.566Z,3.93
2019-03-16T22:15:13.290Z,2.20
2019-03-16T22:17:42.801Z,2.83
2019-03-16T22:20:13.560Z,3.33
2019-03-16T22:22:41.953Z,1.80
2019-03-16T22:25:11.765Z,3.23
2019-03-16T22:27:40.130Z,3.43
2019-03-16T22:30:11.874Z,2.20
2019-03-16T22:32:40.234Z,2.40
2019-03-16T22:35:09.514Z,3.23
2019-03-16T22:37:38.227Z,3.77
2019-03-16T22:40:12.094Z,2.53
2019-03-16T22:42:40.729Z,3.07
2019-03-16T22:45:13.643Z,2.93
2019-03-16T22:47:42.013Z,5.07
2019-03-16T22:50:12.370Z,3.10
2019-03-16T22:52:40.732Z,2.30
2019-03-16T22:55:09.330Z,1.77
2019-03-16T22:57:37.939Z,2.90
2019-03-16T23:00:28.729Z,3.60
2019-03-16T23:02:57.429Z,1.77
2019-03-16T23:05:26.514Z,1.80
2019-03-16T23:07:55.607Z,3.23
2019-03-16T23:10:24.495Z,2.53
2019-03-16T23:12:52.856Z,2.63
2019-03-16T23:15:21.481Z,3.57
2019-03-16T23:17:52.628Z,1.70
2019-03-16T23:20:20.076Z,2.93
2019-03-16T23:22:48.433Z,2.53
2019-03-16T23:25:17.010Z,3.00
2019-03-16T23:27:45.429Z,2.53
2019-03-16T23:30:13.738Z,2.00
2019-03-16T23:32:42.279Z,3.80
2019-03-16T23:35:11.274Z,2.23
2019-03-16T23:37:39.632Z,3.27
2019-03-16T23:40:11.571Z,2.23
2019-03-16T23:42:39.928Z,3.07
2019-03-16T23:45:10.997Z,2.07
2019-03-16T23:47:39.350Z,2.67
2019-03-16T23:50:09.653Z,3.53
2019-03-16T23:52:38.680Z,2.47
2019-03-16T23:55:09.002Z,2.17
2019-03-16T23:57:37.366Z,5.70
